Česky Dansk Deutsch English Español Suomi Français Magyar Italiano Nederlands norsk Polski Português svenska Türkçe

 

Het Weer

Khon Kaen (Thailand)

12:00, 25 juli 2016 (GMT)

NWNNE
WE
SWSSE
Home            
Khon Kaen Roi Et Udon Thani Chaiyaphum Sakon Nakhon Nong Khai Loei Vientiane Nakhon Ratchasima Savannakhet Mukdahan Thakhek Nakhon Phanom Ubon Ratchathani Phitsanulok Pakse Nakhon Sawan Prachin Buri Uttaradit Sayaboury Nan Phrae Siemreap

Om een weerknop op uw website of weblog te plaatsen, copieer onderstaande code en plak die in uw pagina. In het eerste vakje staat HTML-code, in het tweede vakje UBB-code.


Add to Google

Details

Wind speed:1 bf, 2 kn, 1.0 m/s, 2.3 miles/h, 3.7 km/h
Wind direction:WSW, 250°
Visibility:Greater than 10000 m, 10 km, 32800 ft, 6.2 miles
Clouds:Ein wenig bewölkt at 3500 ft, 1067 m
Temperature:27°C, 81°F
Gefühlte Temperatur:31°C, 88°F
Dew-point:25°C, 77°F
Atmospheric pressure:1007 hPa, 755.3 mmHg, 29.74 inHg, 0.994 atm
Relative humidity:88.8 %
METAR:VTUK 251200Z 25002KT 9999 FEW035 27/25 Q1007 NOSIG

Snelkoppelingen

Actuele weersinformatie van de hele wereld. Voeg locaties toe met het plus (+) symbool. Deze snelkoppelingen kunnen worden toegevoegd aan Google.

Lid van de Technetium groep

website free tracking
StatCounter NetStat W3C Validator

04-08-2020 01:17:52
astro.technetium.be money.technetium.be phote.technetium.be tafeltennistafel.technetium.be www.ligfiets.net